Time;durP1;ratioP1;P1;durP2;ratioP2;P2;SDS_P1;SDS_P2;PMS_P1;PMS_P2;Temp;Humidity;BMP_temperature;BMP_pressure;BME280_temperature;BME280_humidity;BME280_pressure;Samples;Min_cycle;Max_cycle;Signal;HPM_P1;HPM_P2
2022/06/02 00:01:30;;;;;;;3.38;1.75;;;13.10;88.90;;;;;;5019921;28;20033;-76
2022/06/02 00:04:33;;;;;;;1.90;1.75;;;13.20;89.00;;;;;;5024068;28;20048;-77
2022/06/02 00:07:04;;;;;;;2.45;1.63;;;13.20;88.90;;;;;;5024765;28;20044;-76
2022/06/02 00:09:53;;;;;;;2.00;1.70;;;13.30;89.00;;;;;;5029714;28;20025;-76
2022/06/02 00:12:26;;;;;;;2.28;1.52;;;13.30;88.90;;;;;;5025674;28;20686;-76
2022/06/02 00:15:15;;;;;;;1.92;1.83;;;13.30;88.70;;;;;;5020906;28;20419;-76
2022/06/02 00:17:46;;;;;;;1.73;1.63;;;13.30;88.70;;;;;;5021958;28;20037;-76
2022/06/02 00:20:29;;;;;;;3.00;1.67;;;13.40;89.30;;;;;;5025472;28;20140;-76
2022/06/02 00:23:06;;;;;;;2.25;1.80;;;13.30;88.60;;;;;;5014790;28;20029;-76
2022/06/02 00:26:19;;;;;;;2.17;1.98;;;13.30;88.40;;;;;;5025053;28;20026;-76
2022/06/02 00:29:02;;;;;;;2.17;1.80;;;13.30;88.60;;;;;;5026567;28;20443;-76
2022/06/02 00:31:48;;;;;;;2.40;1.92;;;13.20;89.10;;;;;;5028767;28;20049;-76
2022/06/02 00:34:31;;;;;;;1.90;1.80;;;13.10;89.40;;;;;;5021439;28;20083;-76
2022/06/02 00:37:09;;;;;;;2.08;1.95;;;13.00;89.90;;;;;;5032837;28;20574;-76
2022/06/02 00:39:35;;;;;;;2.25;1.90;;;12.90;90.10;;;;;;5051021;28;20033;-76
2022/06/02 00:42:20;;;;;;;3.20;1.88;;;12.80;90.10;;;;;;5035009;28;20033;-76
2022/06/02 00:44:57;;;;;;;2.03;1.92;;;12.70;90.20;;;;;;5034336;28;20069;-76
2022/06/02 00:47:33;;;;;;;2.20;2.00;;;12.60;90.30;;;;;;5054233;28;20515;-76
2022/06/02 00:50:05;;;;;;;3.13;1.85;;;12.40;90.50;;;;;;5030585;28;20033;-76
2022/06/02 00:52:41;;;;;;;4.43;1.83;;;12.40;90.80;;;;;;5033639;28;20034;-76
2022/06/02 00:58:24;;;;;;;1.83;1.73;;;12.20;91.00;;;;;;5031791;28;20037;-76
2022/06/02 01:01:04;;;;;;;3.05;2.35;;;12.20;91.10;;;;;;5033634;28;20685;-76
2022/06/02 01:03:40;;;;;;;2.35;2.00;;;12.10;91.30;;;;;;5029829;28;20067;-76
2022/06/02 01:06:17;;;;;;;2.00;1.90;;;12.10;91.70;;;;;;5035732;28;20096;-76
2022/06/02 01:08:50;;;;;;;3.70;2.17;;;12.10;91.50;;;;;;5034165;28;20105;-76
2022/06/02 01:11:44;;;;;;;1.92;1.83;;;12.00;91.50;;;;;;5034992;28;20140;-76
2022/06/02 01:14:19;;;;;;;2.80;1.88;;;12.10;91.40;;;;;;5026319;28;20041;-76
2022/06/02 01:16:57;;;;;;;2.75;1.92;;;12.10;91.30;;;;;;5027392;28;20043;-76
2022/06/02 01:19:32;;;;;;;3.05;2.00;;;12.10;91.30;;;;;;5027659;28;20080;-76
2022/06/02 01:22:13;;;;;;;4.03;1.90;;;12.00;91.20;;;;;;5039588;28;20124;-76
2022/06/02 01:25:03;;;;;;;3.38;1.90;;;12.00;91.20;;;;;;5034897;28;20040;-76
2022/06/02 01:27:45;;;;;;;1.60;1.50;;;12.00;91.30;;;;;;5052657;28;20037;-76
2022/06/02 01:30:48;;;;;;;1.70;1.60;;;11.90;91.20;;;;;;5032322;28;20033;-76
2022/06/02 01:33:18;;;;;;;1.70;1.60;;;11.80;91.20;;;;;;5026070;28;20041;-76
2022/06/02 01:35:55;;;;;;;2.47;1.60;;;11.80;91.20;;;;;;5028227;28;20042;-76
2022/06/02 01:38:47;;;;;;;1.65;1.50;;;11.70;91.30;;;;;;5031700;28;20037;-76
2022/06/02 01:41:29;;;;;;;2.10;1.90;;;11.70;91.40;;;;;;5035383;28;20090;-75
2022/06/02 01:44:01;;;;;;;2.92;1.70;;;11.60;91.40;;;;;;5032585;28;20021;-76
2022/06/02 01:47:02;;;;;;;3.13;2.08;;;11.60;91.50;;;;;;5032101;28;20057;-76
2022/06/02 01:49:52;;;;;;;5.85;1.90;;;11.50;91.60;;;;;;5024677;28;20111;-76
2022/06/02 01:52:35;;;;;;;2.13;1.90;;;11.40;91.80;;;;;;5023337;28;20084;-76
2022/06/02 01:55:16;;;;;;;2.40;2.10;;;11.40;91.90;;;;;;5025988;28;20032;-76
2022/06/02 01:58:14;;;;;;;2.50;2.30;;;11.30;92.10;;;;;;5027246;28;20032;-76
2022/06/02 02:00:41;;;;;;;5.65;2.50;;;11.30;92.20;;;;;;5038495;28;20926;-76
2022/06/02 02:03:38;;;;;;;2.72;2.38;;;11.30;92.40;;;;;;5024084;28;20513;-76
2022/06/02 02:06:12;;;;;;;2.88;2.58;;;11.20;92.50;;;;;;5032365;28;20025;-76
2022/06/02 02:08:47;;;;;;;2.97;2.38;;;11.20;92.50;;;;;;5029118;28;20121;-75
2022/06/02 02:11:28;;;;;;;2.38;2.17;;;11.20;92.60;;;;;;5026233;28;20052;-76
2022/06/02 02:14:05;;;;;;;2.92;2.55;;;11.10;92.70;;;;;;5031425;28;20108;-76
2022/06/02 02:16:49;;;;;;;2.53;2.17;;;11.10;92.90;;;;;;5029272;28;20044;-76
2022/06/02 02:19:42;;;;;;;3.90;2.63;;;11.10;92.90;;;;;;5023894;28;20103;-76
2022/06/02 02:22:33;;;;;;;2.50;2.30;;;11.00;92.90;;;;;;5019831;28;20029;-76
2022/06/02 02:25:02;;;;;;;2.08;1.95;;;11.10;92.90;;;;;;5026838;28;20567;-76
2022/06/02 02:28:04;;;;;;;4.53;2.10;;;11.00;92.90;;;;;;5028879;28;20496;-76
2022/06/02 02:30:45;;;;;;;2.50;2.30;;;11.00;93.00;;;;;;5026888;28;20039;-76
2022/06/02 02:33:35;;;;;;;2.92;2.63;;;10.90;93.10;;;;;;5031666;28;20695;-76
2022/06/02 02:36:25;;;;;;;4.47;2.47;;;10.90;93.20;;;;;;5030061;28;20092;-76
2022/06/02 02:39:03;;;;;;;3.60;2.45;;;10.90;93.20;;;;;;5024953;28;20080;-76
2022/06/02 02:41:43;;;;;;;2.80;2.40;;;10.90;93.20;;;;;;5026225;28;20037;-76
2022/06/02 02:44:17;;;;;;;3.72;2.90;;;10.80;93.20;;;;;;5026387;28;20562;-76
2022/06/02 02:46:55;;;;;;;3.40;3.10;;;10.80;93.20;;;;;;5028959;28;20025;-76
2022/06/02 02:49:43;;;;;;;3.22;2.47;;;10.80;93.30;;;;;;5021617;28;20056;-76
2022/06/02 02:52:43;;;;;;;3.13;2.83;;;10.80;93.40;;;;;;5020961;28;20048;-76
2022/06/02 02:55:32;;;;;;;3.70;3.30;;;10.80;93.40;;;;;;5027458;28;20124;-76
2022/06/02 02:58:02;;;;;;;3.08;2.78;;;10.70;93.40;;;;;;5032132;28;20041;-76
2022/06/02 03:00:35;;;;;;;3.67;2.97;;;10.70;93.50;;;;;;5025748;28;20120;-76
2022/06/02 03:03:12;;;;;;;3.33;2.90;;;10.70;93.60;;;;;;5026705;28;20037;-76
2022/06/02 03:06:03;;;;;;;2.78;2.40;;;10.70;93.80;;;;;;5024896;28;20400;-76
2022/06/02 03:08:45;;;;;;;4.07;2.55;;;10.70;93.50;;;;;;5017972;28;20057;-76
2022/06/02 03:11:22;;;;;;;4.63;2.95;;;10.70;93.60;;;;;;5025074;28;20036;-76
2022/06/02 03:14:02;;;;;;;4.18;3.00;;;10.70;93.50;;;;;;5027210;28;20049;-76
2022/06/02 03:16:32;;;;;;;3.00;2.70;;;10.70;93.50;;;;;;5024536;28;20033;-76
2022/06/02 03:19:33;;;;;;;3.10;2.80;;;10.70;93.60;;;;;;5040625;28;20047;-76
2022/06/02 03:22:29;;;;;;;4.18;2.90;;;10.70;93.60;;;;;;5026188;28;20072;-76
2022/06/02 03:25:13;;;;;;;4.10;3.70;;;10.70;93.60;;;;;;5020904;28;20067;-76
2022/06/02 03:28:36;;;;;;;4.95;3.75;;;10.80;93.70;;;;;;5026895;28;20112;-76
2022/06/02 03:31:12;;;;;;;4.28;3.42;;;10.80;93.70;;;;;;4995686;28;20045;-76
2022/06/02 03:33:59;;;;;;;4.47;3.53;;;10.80;93.60;;;;;;4976117;28;20797;-75
2022/06/02 03:36:56;;;;;;;5.93;4.28;;;10.80;93.50;;;;;;5008357;28;20429;-76
2022/06/02 03:39:41;;;;;;;6.30;4.95;;;10.80;93.60;;;;;;5019426;28;20026;-76
2022/06/02 03:42:22;;;;;;;5.65;5.07;;;10.80;93.60;;;;;;5020612;28;20124;-76
2022/06/02 03:45:02;;;;;;;5.75;4.07;;;10.90;93.70;;;;;;5030171;28;20033;-76
2022/06/02 03:47:38;;;;;;;5.28;4.47;;;11.00;93.60;;;;;;5026226;28;20115;-76
2022/06/02 03:50:25;;;;;;;6.78;4.80;;;11.00;93.50;;;;;;5029237;28;20033;-76
2022/06/02 03:53:13;;;;;;;5.72;5.15;;;11.10;93.50;;;;;;5015662;28;20041;-76
2022/06/02 03:56:09;;;;;;;7.47;5.57;;;11.20;93.40;;;;;;5025750;28;20033;-75
2022/06/02 03:58:56;;;;;;;8.00;5.93;;;11.30;93.30;;;;;;5007399;28;20048;-76
2022/06/02 04:01:26;;;;;;;5.90;5.20;;;11.50;93.30;;;;;;5027480;28;20040;-76
2022/06/02 04:04:05;;;;;;;6.28;5.22;;;11.50;93.10;;;;;;5027476;28;20060;-76
2022/06/02 04:06:52;;;;;;;6.38;5.68;;;11.70;93.00;;;;;;5030332;28;20029;-76
2022/06/02 04:09:59;;;;;;;8.45;6.70;;;11.70;92.90;;;;;;5023587;28;20120;-76
2022/06/02 04:15:50;;;;;;;7.63;5.95;;;12.10;92.50;;;;;;5003564;28;20038;-76
2022/06/02 04:18:32;;;;;;;9.02;7.15;;;12.10;92.40;;;;;;5026795;28;20048;-76
2022/06/02 04:21:24;;;;;;;9.55;7.57;;;12.30;92.20;;;;;;5030996;28;20033;-76
2022/06/02 04:24:06;;;;;;;9.05;7.55;;;12.40;92.10;;;;;;5026531;28;20037;-76
2022/06/02 04:26:58;;;;;;;10.50;7.97;;;12.50;91.80;;;;;;5035470;28;20156;-76
2022/06/02 04:29:46;;;;;;;8.60;7.38;;;12.50;91.60;;;;;;5020158;28;20033;-76
2022/06/02 04:32:40;;;;;;;10.27;7.57;;;12.60;91.60;;;;;;5038411;28;20025;-76
2022/06/02 04:35:21;;;;;;;11.90;8.18;;;12.60;91.40;;;;;;5026441;28;20068;-76
2022/06/02 04:37:57;;;;;;;10.55;7.68;;;12.70;91.30;;;;;;5027003;28;20355;-76
2022/06/02 04:40:29;;;;;;;12.48;8.75;;;12.80;91.30;;;;;;5038767;28;20044;-76
2022/06/02 04:43:24;;;;;;;11.35;8.23;;;12.80;91.10;;;;;;5031303;28;20467;-76
2022/06/02 04:46:17;;;;;;;14.65;8.50;;;12.90;91.40;;;;;;5025430;28;20021;-76
2022/06/02 04:49:08;;;;;;;11.38;8.07;;;13.00;90.80;;;;;;5029587;28;20029;-75
2022/06/02 04:52:01;;;;;;;10.80;8.30;;;13.10;90.60;;;;;;5023977;28;20700;-76
2022/06/02 04:54:49;;;;;;;10.63;8.15;;;13.20;90.60;;;;;;5017969;28;20044;-76
2022/06/02 04:57:24;;;;;;;11.75;9.00;;;13.40;90.40;;;;;;5021623;28;20117;-76
2022/06/02 05:00:17;;;;;;;9.98;8.30;;;13.50;90.10;;;;;;5029927;28;20025;-76
2022/06/02 05:02:56;;;;;;;12.32;8.13;;;13.60;89.30;;;;;;5031762;28;20113;-76
2022/06/02 05:05:44;;;;;;;11.27;8.50;;;13.80;88.60;;;;;;5026334;28;20037;-76
2022/06/02 05:08:49;;;;;;;9.88;7.60;;;13.90;88.30;;;;;;5023864;28;20048;-76
2022/06/02 05:11:36;;;;;;;10.13;7.18;;;13.90;88.20;;;;;;4993559;28;20107;-76
2022/06/02 05:14:16;;;;;;;10.27;7.60;;;14.00;87.60;;;;;;5034568;28;20029;-76
2022/06/02 05:17:10;;;;;;;8.50;6.88;;;14.10;87.30;;;;;;5025191;28;20049;-76
2022/06/02 05:20:14;;;;;;;10.82;8.18;;;14.30;86.90;;;;;;5033053;28;20037;-76
2022/06/02 05:23:22;;;;;;;10.05;7.57;;;14.50;85.60;;;;;;5031109;28;20820;-76
2022/06/02 05:26:21;;;;;;;10.40;8.50;;;14.70;84.90;;;;;;5007609;28;20038;-76
2022/06/02 05:28:59;;;;;;;8.50;7.63;;;14.90;83.90;;;;;;5025066;28;20037;-76
2022/06/02 05:32:03;;;;;;;12.88;8.25;;;15.10;83.80;;;;;;5027729;28;20120;-76
2022/06/02 05:34:41;;;;;;;10.52;7.18;;;15.20;82.70;;;;;;5034044;28;20147;-76
2022/06/02 05:37:18;;;;;;;10.18;7.80;;;15.10;82.70;;;;;;5029452;28;20033;-76
2022/06/02 05:39:55;;;;;;;9.80;6.53;;;15.20;82.70;;;;;;5026348;28;20851;-76
2022/06/02 05:42:59;;;;;;;7.95;6.57;;;15.30;82.60;;;;;;5022880;28;20049;-75
2022/06/02 05:45:56;;;;;;;8.70;6.97;;;15.40;81.80;;;;;;5019243;28;20119;-76
2022/06/02 05:48:23;;;;;;;8.80;6.50;;;15.50;81.60;;;;;;5030649;28;20029;-75
2022/06/02 05:51:05;;;;;;;8.40;7.10;;;15.50;81.80;;;;;;5029432;28;20038;-75
2022/06/02 05:53:49;;;;;;;10.15;7.13;;;15.60;81.20;;;;;;5030135;28;20923;-75
2022/06/02 05:56:26;;;;;;;7.47;6.38;;;15.60;80.80;;;;;;5029312;28;20952;-75
2022/06/02 05:59:19;;;;;;;6.93;5.78;;;15.90;80.50;;;;;;5018740;28;20037;-75
2022/06/02 06:02:18;;;;;;;7.63;6.30;;;16.30;78.90;;;;;;5026875;28;20885;-75
2022/06/02 06:05:05;;;;;;;7.78;6.25;;;16.60;77.70;;;;;;5021754;28;20563;-75
2022/06/02 06:07:45;;;;;;;7.18;5.95;;;16.80;76.90;;;;;;5030449;28;20669;-75
2022/06/02 06:10:25;;;;;;;7.32;5.60;;;17.00;75.50;;;;;;5030038;28;20021;-75
2022/06/02 06:13:26;;;;;;;7.47;5.82;;;17.00;75.10;;;;;;5026007;28;20120;-75
2022/06/02 06:16:13;;;;;;;7.20;6.13;;;17.00;75.10;;;;;;5022690;28;20448;-76
2022/06/02 06:19:31;;;;;;;8.50;6.05;;;17.00;75.10;;;;;;5021261;28;20072;-75
2022/06/02 06:22:41;;;;;;;8.80;6.60;;;17.10;74.30;;;;;;4999394;28;20052;-75
2022/06/02 06:25:26;;;;;;;5.75;4.93;;;17.10;74.30;;;;;;4945068;28;20055;-75
2022/06/02 06:28:20;;;;;;;9.70;5.60;;;17.20;74.70;;;;;;5025614;28;20029;-75
2022/06/02 06:30:49;;;;;;;7.20;5.78;;;17.30;73.50;;;;;;5029187;28;20068;-76
2022/06/02 06:33:24;;;;;;;6.50;4.35;;;17.30;74.20;;;;;;5029528;28;20037;-76
2022/06/02 06:36:11;;;;;;;5.43;4.70;;;17.40;74.30;;;;;;5029983;28;20037;-75
2022/06/02 06:39:01;;;;;;;6.38;4.70;;;17.40;73.20;;;;;;5025197;28;20043;-75
2022/06/02 06:41:29;;;;;;;6.95;4.75;;;17.50;72.60;;;;;;5043715;28;20033;-75
2022/06/02 06:44:07;;;;;;;6.65;4.60;;;17.60;71.40;;;;;;5023792;28;20021;-75
2022/06/02 06:47:00;;;;;;;5.18;4.40;;;17.80;71.00;;;;;;5026548;28;20505;-75
2022/06/02 06:49:53;;;;;;;4.15;3.65;;;18.30;69.80;;;;;;5031550;28;20087;-76
2022/06/02 06:52:37;;;;;;;4.22;3.78;;;18.60;68.90;;;;;;5029560;28;20045;-75
2022/06/02 06:55:22;;;;;;;6.40;4.10;;;18.90;67.60;;;;;;5025640;28;20037;-75
2022/06/02 06:58:13;;;;;;;4.95;4.18;;;19.10;66.90;;;;;;5026288;28;20544;-76
2022/06/02 07:01:19;;;;;;;4.53;3.70;;;19.10;65.90;;;;;;5025509;28;20048;-75
2022/06/02 07:04:10;;;;;;;6.20;3.88;;;18.90;65.40;;;;;;5025352;28;20080;-75
2022/06/02 07:06:55;;;;;;;4.32;3.83;;;18.80;65.80;;;;;;5035501;28;20037;-76
2022/06/02 07:09:41;;;;;;;4.75;3.88;;;18.80;66.10;;;;;;5024434;28;20836;-77
2022/06/02 07:15:41;;;;;;;5.28;4.18;;;18.60;66.30;;;;;;5027159;28;20112;-76
2022/06/02 07:18:35;;;;;;;4.88;4.30;;;18.40;67.10;;;;;;4995985;28;20049;-76
2022/06/02 07:21:16;;;;;;;4.20;3.78;;;18.40;67.80;;;;;;5025624;28;20125;-76
2022/06/02 07:23:56;;;;;;;4.65;3.83;;;18.60;67.30;;;;;;5019971;28;20512;-75
2022/06/02 07:26:21;;;;;;;5.45;4.25;;;18.80;66.80;;;;;;5024366;28;20061;-77
2022/06/02 07:28:50;;;;;;;3.85;3.45;;;18.80;66.10;;;;;;5024236;28;20113;-75
2022/06/02 07:31:55;;;;;;;3.55;3.25;;;18.70;66.40;;;;;;5025679;28;20045;-76
2022/06/02 07:35:00;;;;;;;4.72;3.55;;;18.70;65.40;;;;;;5020693;28;20512;-77
2022/06/02 07:37:47;;;;;;;6.35;3.65;;;18.70;65.50;;;;;;5030424;28;20029;-76
2022/06/02 07:40:32;;;;;;;3.65;3.20;;;18.80;65.60;;;;;;5022833;28;20967;-76
2022/06/02 07:43:35;;;;;;;4.20;3.70;;;19.00;64.50;;;;;;5029475;28;20041;-76
2022/06/02 07:46:27;;;;;;;4.22;3.38;;;19.10;62.40;;;;;;5026819;28;20042;-76
2022/06/02 07:48:59;;;;;;;6.22;3.97;;;19.20;63.00;;;;;;5024748;28;20021;-77
2022/06/02 07:51:30;;;;;;;4.30;3.85;;;19.20;63.00;;;;;;5017128;28;20060;-78
2022/06/02 07:54:15;;;;;;;4.82;3.33;;;19.00;63.50;;;;;;5013388;28;20041;-78
2022/06/02 07:56:52;;;;;;;3.38;2.85;;;18.60;64.70;;;;;;5022567;28;20107;-78
2022/06/02 07:59:32;;;;;;;3.30;2.40;;;18.10;64.80;;;;;;5029975;28;20033;-73
2022/06/02 08:02:13;;;;;;;6.22;3.47;;;17.90;66.80;;;;;;5026613;28;20128;-78
2022/06/02 08:05:01;;;;;;;5.35;2.75;;;18.00;66.00;;;;;;5022962;28;20038;-78
2022/06/02 08:07:34;;;;;;;3.58;2.08;;;18.50;63.80;;;;;;5024565;28;20037;-78
2022/06/02 08:10:06;;;;;;;3.55;1.80;;;18.80;61.70;;;;;;5020486;28;20037;-78
2022/06/02 08:12:59;;;;;;;2.33;1.40;;;19.10;59.10;;;;;;5026489;28;20041;-78
2022/06/02 08:15:37;;;;;;;2.60;1.70;;;19.20;59.00;;;;;;5027508;28;20060;-78
2022/06/02 08:23:44;;;;;;;2.58;1.85;;;19.00;59.60;;;;;;4970835;28;20101;-77
2022/06/02 08:26:19;;;;;;;3.92;2.10;;;18.80;59.90;;;;;;4974917;28;20054;-77
2022/06/02 08:29:03;;;;;;;2.60;1.75;;;19.00;60.60;;;;;;4972393;28;20040;-78
2022/06/02 08:32:03;;;;;;;2.75;1.10;;;19.50;57.70;;;;;;4967964;28;20795;-77
2022/06/02 08:35:04;;;;;;;3.63;1.40;;;20.00;55.50;;;;;;4973629;28;20163;-80
2022/06/02 08:37:45;;;;;;;4.57;1.02;;;20.40;54.00;;;;;;4977323;28;20158;-77
2022/06/02 08:40:23;;;;;;;7.05;1.40;;;20.40;53.90;;;;;;4972215;28;20081;-77
2022/06/02 08:42:59;;;;;;;1.58;1.20;;;20.30;53.90;;;;;;4975874;28;20046;-77
2022/06/02 08:45:24;;;;;;;;;;;20.20;53.60;;;;;;4962308;28;20490;-75
2022/06/02 08:48:10;;;;;;;1.20;1.00;;;20.50;53.50;;;;;;4978844;28;19913;-75
2022/06/02 08:50:38;;;;;;;2.88;1.20;;;20.70;52.40;;;;;;4978973;28;20277;-75
2022/06/02 08:53:41;;;;;;;2.50;1.20;;;20.80;53.80;;;;;;4981700;28;20069;-78
2022/06/02 08:56:28;;;;;;;2.03;1.10;;;20.80;52.70;;;;;;4975916;28;20169;-79
2022/06/02 08:59:18;;;;;;;5.03;1.45;;;20.90;52.50;;;;;;4977491;28;20035;-78
2022/06/02 09:02:25;;;;;;;1.75;1.00;;;20.60;52.80;;;;;;4977299;28;20031;-79
2022/06/02 09:05:22;;;;;;;2.70;0.93;;;20.10;53.00;;;;;;4973715;28;20031;-76
2022/06/02 09:08:38;;;;;;;2.03;1.55;;;20.00;53.10;;;;;;4973674;28;20089;-75
2022/06/02 09:11:27;;;;;;;2.33;1.35;;;19.90;52.80;;;;;;4915925;29;20040;-75
2022/06/02 09:14:30;;;;;;;2.17;1.33;;;20.00;53.40;;;;;;4913345;29;20036;-75
2022/06/02 09:16:58;;;;;;;3.97;1.10;;;20.20;54.00;;;;;;4967866;28;20049;-75
2022/06/02 09:20:03;;;;;;;1.83;1.10;;;20.40;52.10;;;;;;4975217;28;20065;-74
2022/06/02 09:22:52;;;;;;;1.30;1.20;;;20.50;50.70;;;;;;4973112;28;20042;-75
2022/06/02 09:25:56;;;;;;;2.33;1.00;;;20.40;50.20;;;;;;4975539;28;20129;-75
2022/06/02 09:28:40;;;;;;;3.55;1.00;;;20.40;50.30;;;;;;4969475;28;20458;-76
2022/06/02 09:31:33;;;;;;;2.72;1.13;;;20.60;51.30;;;;;;4978103;28;20780;-76
2022/06/02 09:34:23;;;;;;;2.03;1.38;;;20.80;50.30;;;;;;4974868;28;20810;-76
2022/06/02 09:37:23;;;;;;;5.10;0.82;;;20.90;50.30;;;;;;4975271;28;20061;-77
2022/06/02 09:40:12;;;;;;;2.53;1.00;;;20.90;50.80;;;;;;4972767;28;20134;-76
2022/06/02 09:43:02;;;;;;;2.58;0.82;;;20.70;51.70;;;;;;4970129;28;20039;-76
2022/06/02 09:45:48;;;;;;;2.97;1.02;;;20.40;50.50;;;;;;4971642;28;20023;-79
2022/06/02 09:48:45;;;;;;;2.47;1.15;;;20.30;51.60;;;;;;4974030;28;20189;-77
2022/06/02 09:51:33;;;;;;;2.47;1.20;;;20.40;51.50;;;;;;4978434;28;20057;-79
2022/06/02 09:54:25;;;;;;;2.00;1.10;;;20.50;51.90;;;;;;4972823;28;20094;-78
2022/06/02 09:57:55;;;;;;;3.08;1.20;;;21.10;49.50;;;;;;4976797;28;20038;-77
2022/06/02 10:00:04;;;;;;;2.30;1.25;;;21.20;49.20;;;;;;4967561;28;20039;-77
2022/06/02 10:02:51;;;;;;;2.50;1.15;;;21.00;49.60;;;;;;4972345;28;20045;-77
2022/06/02 10:05:32;;;;;;;1.83;1.00;;;21.00;49.70;;;;;;4972165;28;20082;-77
2022/06/02 10:08:20;;;;;;;2.95;1.00;;;20.80;48.90;;;;;;4964901;28;20566;-77
2022/06/02 10:11:08;;;;;;;2.03;1.23;;;20.40;50.40;;;;;;4971314;28;20027;-77
2022/06/02 10:14:11;;;;;;;1.67;0.80;;;20.20;51.50;;;;;;4970230;28;20038;-78
2022/06/02 10:17:00;;;;;;;2.00;0.82;;;20.40;50.80;;;;;;4978793;28;20520;-78
2022/06/02 10:19:46;;;;;;;2.22;1.15;;;20.40;50.10;;;;;;4958399;28;20054;-77
2022/06/02 10:22:20;;;;;;;1.15;1.00;;;20.50;51.00;;;;;;4970148;28;20049;-78
2022/06/02 10:25:01;;;;;;;0.75;0.70;;;20.90;49.30;;;;;;4970721;28;20109;-77
2022/06/02 10:27:49;;;;;;;1.75;1.02;;;21.40;48.20;;;;;;4971604;28;20402;-75
2022/06/02 10:31:03;;;;;;;3.38;1.25;;;21.60;48.40;;;;;;4973971;28;20034;-75
2022/06/02 10:33:41;;;;;;;1.85;0.80;;;21.70;47.50;;;;;;4973422;28;20039;-75
2022/06/02 10:36:27;;;;;;;1.98;1.13;;;21.90;47.20;;;;;;4970723;28;20109;-75
2022/06/02 10:39:16;;;;;;;2.30;0.90;;;21.90;45.80;;;;;;4974704;28;20550;-75
2022/06/02 10:42:15;;;;;;;1.42;1.00;;;22.10;45.30;;;;;;4973215;28;20041;-75
2022/06/02 10:45:10;;;;;;;1.23;0.80;;;22.70;44.20;;;;;;4967913;28;20026;-75
2022/06/02 10:48:31;;;;;;;1.88;1.10;;;23.80;44.40;;;;;;4971725;28;20478;-74
2022/06/02 10:51:08;;;;;;;2.42;1.10;;;24.10;41.70;;;;;;4899925;29;20587;-76
2022/06/02 10:53:50;;;;;;;2.67;1.00;;;23.80;41.60;;;;;;4959584;28;20061;-75
2022/06/02 10:56:31;;;;;;;2.20;0.80;;;23.30;42.10;;;;;;4971121;28;20769;-76
2022/06/02 10:59:39;;;;;;;0.63;0.60;;;22.90;42.00;;;;;;4971024;28;20114;-75
2022/06/02 11:02:30;;;;;;;4.35;0.60;;;22.70;43.00;;;;;;4985809;28;20066;-71
2022/06/02 11:05:20;;;;;;;1.55;0.80;;;22.30;44.10;;;;;;4968842;28;20030;-75
2022/06/02 11:08:20;;;;;;;4.75;1.08;;;22.00;45.80;;;;;;4971633;28;20031;-76
2022/06/02 11:11:17;;;;;;;0.75;0.60;;;21.80;45.20;;;;;;4970269;28;20034;-76
2022/06/02 11:13:51;;;;;;;;;;;21.70;45.70;;;;;;4970826;28;20046;-77
2022/06/02 11:16:47;;;;;;;1.10;0.63;;;21.60;45.60;;;;;;4973261;28;19921;-76
2022/06/02 11:19:33;;;;;;;0.68;0.40;;;21.50;45.20;;;;;;4969683;28;20121;-76
2022/06/02 11:22:22;;;;;;;1.38;0.63;;;21.60;45.40;;;;;;4969810;28;20026;-76
2022/06/02 11:25:19;;;;;;;0.63;0.60;;;21.60;44.60;;;;;;4970571;28;20041;-76
2022/06/02 11:27:57;;;;;;;0.50;0.50;;;21.60;44.20;;;;;;4974237;28;20125;-74
2022/06/02 11:31:06;;;;;;;0.50;0.50;;;21.50;42.90;;;;;;4971987;28;20145;-71
2022/06/02 11:33:53;;;;;;;0.57;0.52;;;21.50;43.80;;;;;;4966348;28;20040;-73
2022/06/02 11:36:50;;;;;;;1.67;0.60;;;21.70;44.70;;;;;;4970995;28;20081;-74
2022/06/02 11:39:42;;;;;;;1.40;0.57;;;22.00;44.50;;;;;;4971043;28;20035;-73
2022/06/02 11:42:28;;;;;;;1.58;0.73;;;22.00;43.70;;;;;;4971433;28;20046;-71
2022/06/02 11:45:06;;;;;;;1.63;0.68;;;22.00;43.70;;;;;;4974924;28;20076;-75
2022/06/02 11:48:01;;;;;;;0.68;0.60;;;21.80;42.80;;;;;;4967976;28;20037;-73
2022/06/02 11:50:56;;;;;;;0.88;0.60;;;21.60;43.60;;;;;;4976193;28;20034;-74
2022/06/02 11:53:52;;;;;;;2.58;1.10;;;21.70;44.40;;;;;;4976843;28;20121;-74
2022/06/02 11:56:51;;;;;;;2.33;0.88;;;21.80;46.00;;;;;;4970981;28;20145;-74
2022/06/02 11:59:35;;;;;;;2.15;0.73;;;22.10;44.40;;;;;;4968314;28;20041;-71
2022/06/02 12:02:16;;;;;;;1.48;0.73;;;22.30;42.70;;;;;;4966649;28;20116;-73
2022/06/02 12:04:53;;;;;;;2.40;0.90;;;22.50;41.50;;;;;;4968511;28;20678;-71
2022/06/02 12:07:49;;;;;;;0.70;0.70;;;22.40;41.90;;;;;;4972458;28;20034;-73
2022/06/02 12:11:02;;;;;;;1.20;0.60;;;22.20;42.60;;;;;;4968701;28;20049;-73
2022/06/02 12:13:48;;;;;;;1.40;0.60;;;22.40;44.40;;;;;;4953427;28;20149;-73
2022/06/02 12:16:22;;;;;;;3.10;0.98;;;22.80;42.10;;;;;;4970409;28;20043;-73
2022/06/02 12:19:25;;;;;;;0.70;0.60;;;23.00;41.80;;;;;;4972838;28;20038;-73
2022/06/02 12:22:10;;;;;;;1.63;1.00;;;23.00;40.30;;;;;;4966930;28;20084;-73
2022/06/02 12:24:41;;;;;;;0.47;0.47;;;23.00;41.20;;;;;;4971754;28;20042;-72
2022/06/02 12:27:13;;;;;;;1.30;0.80;;;23.00;40.70;;;;;;4966633;28;20026;-73
2022/06/02 12:30:16;;;;;;;3.42;1.00;;;23.10;41.10;;;;;;4968120;28;20030;-73
2022/06/02 12:33:20;;;;;;;1.00;0.90;;;23.00;41.80;;;;;;4971491;28;20034;-71
2022/06/02 12:36:11;;;;;;;1.40;0.80;;;23.10;41.40;;;;;;4973197;28;20027;-72
2022/06/02 12:38:46;;;;;;;2.42;0.90;;;23.10;40.60;;;;;;4969387;28;20754;-72
2022/06/02 12:41:25;;;;;;;1.45;0.90;;;22.90;41.00;;;;;;4970012;28;20104;-72
2022/06/02 12:43:56;;;;;;;2.10;0.88;;;22.60;41.70;;;;;;4970908;28;20045;-71
2022/06/02 12:46:32;;;;;;;1.75;0.80;;;22.40;41.90;;;;;;4973440;28;20490;-71
2022/06/02 12:49:28;;;;;;;1.77;1.13;;;22.30;41.70;;;;;;4973142;28;20106;-72
2022/06/02 12:52:00;;;;;;;1.30;0.90;;;22.10;41.40;;;;;;4970562;28;20042;-71
2022/06/02 12:54:59;;;;;;;2.53;0.95;;;21.90;42.50;;;;;;4973282;28;20058;-72
2022/06/02 12:57:42;;;;;;;1.85;0.60;;;21.60;44.40;;;;;;4965277;28;20117;-71
2022/06/02 13:00:45;;;;;;;1.05;0.90;;;21.50;43.50;;;;;;4966413;28;20105;-72
2022/06/02 13:03:29;;;;;;;1.85;0.95;;;21.30;44.20;;;;;;4935750;29;20054;-72
2022/06/02 13:06:21;;;;;;;2.53;0.80;;;21.20;43.30;;;;;;4963120;28;20046;-71
2022/06/02 13:09:05;;;;;;;1.00;0.70;;;21.40;43.30;;;;;;4975462;28;20026;-71
2022/06/02 13:11:55;;;;;;;1.85;0.90;;;21.40;44.00;;;;;;4966872;28;20057;-72
2022/06/02 13:14:59;;;;;;;2.10;0.90;;;21.60;43.40;;;;;;4969506;28;20104;-72
2022/06/02 13:17:32;;;;;;;1.02;0.93;;;21.70;43.70;;;;;;4969062;28;20034;-73
2022/06/02 13:20:13;;;;;;;1.58;0.82;;;21.70;41.90;;;;;;4969945;28;20378;-73
2022/06/02 13:23:08;;;;;;;1.45;0.95;;;21.70;42.30;;;;;;4973002;28;20032;-68
2022/06/02 13:26:20;;;;;;;1.10;0.70;;;21.90;42.30;;;;;;4970187;28;20031;-72
2022/06/02 13:28:55;;;;;;;1.95;0.93;;;21.80;43.00;;;;;;4950184;28;20118;-74
2022/06/02 13:31:32;;;;;;;2.30;1.00;;;21.80;42.30;;;;;;4970430;28;20097;-72
2022/06/02 13:34:31;;;;;;;1.70;0.90;;;21.90;42.10;;;;;;4974446;28;20034;-74
2022/06/02 13:37:30;;;;;;;1.15;0.70;;;22.00;41.20;;;;;;4972275;28;20034;-74
2022/06/02 13:40:18;;;;;;;0.60;0.60;;;22.10;42.90;;;;;;4974889;28;20034;-74
2022/06/02 13:43:40;;;;;;;0.65;0.65;;;22.30;42.80;;;;;;4990767;28;20037;-74
2022/06/02 13:46:36;;;;;;;1.40;0.90;;;22.40;41.20;;;;;;4919254;29;20788;-76
2022/06/02 13:49:22;;;;;;;1.13;0.70;;;22.40;42.10;;;;;;4976097;28;20026;-76
2022/06/02 13:51:47;;;;;;;1.55;0.75;;;22.50;41.80;;;;;;4947815;28;20125;-76
2022/06/02 13:57:46;;;;;;;1.40;0.75;;;22.40;41.40;;;;;;4942867;28;20085;-74
2022/06/02 14:00:34;;;;;;;1.58;0.80;;;22.60;42.20;;;;;;4974179;28;20027;-73
2022/06/02 14:03:09;;;;;;;4.75;0.98;;;22.70;41.90;;;;;;4963407;28;20330;-72
2022/06/02 14:05:46;;;;;;;3.20;0.70;;;22.80;41.70;;;;;;4972902;28;20038;-70
2022/06/02 14:08:35;;;;;;;0.60;0.55;;;22.90;41.80;;;;;;4974516;28;20034;-71
2022/06/02 14:11:22;;;;;;;3.20;0.70;;;22.80;42.30;;;;;;4975444;28;20034;-74
2022/06/02 14:14:26;;;;;;;1.23;0.60;;;23.00;42.20;;;;;;4974316;28;20038;-72
2022/06/02 14:17:17;;;;;;;1.75;0.70;;;23.30;42.70;;;;;;4974400;28;20049;-74
2022/06/02 14:19:52;;;;;;;2.65;0.80;;;23.50;41.40;;;;;;4972509;28;20071;-73
2022/06/02 14:22:22;;;;;;;1.37;0.90;;;23.40;42.00;;;;;;4971561;28;20042;-77
2022/06/02 14:25:05;;;;;;;0.40;0.40;;;23.20;41.30;;;;;;4974295;28;20042;-74
2022/06/02 14:27:37;;;;;;;0.80;0.80;;;22.90;41.60;;;;;;4971216;28;20030;-69
2022/06/02 14:30:18;;;;;;;0.95;0.70;;;22.90;42.00;;;;;;4977018;28;20038;-75
2022/06/02 14:33:16;;;;;;;1.25;0.70;;;22.80;42.60;;;;;;4969225;28;20402;-74
2022/06/02 14:36:27;;;;;;;3.55;1.00;;;22.50;42.60;;;;;;4969455;28;20039;-76
2022/06/02 14:39:20;;;;;;;0.93;0.70;;;22.10;43.90;;;;;;4955588;28;20054;-75
2022/06/02 14:41:54;;;;;;;1.30;0.90;;;21.90;45.40;;;;;;4972557;28;20030;-75
2022/06/02 14:44:30;;;;;;;1.27;0.90;;;22.10;44.00;;;;;;4974114;28;20038;-75